Time;durP1;ratioP1;P1;durP2;ratioP2;P2;SDS_P1;SDS_P2;PMS_P1;PMS_P2;Temp;Humidity;BMP_temperature;BMP_pressure;BME280_temperature;BME280_humidity;BME280_pressure;Samples;Min_cycle;Max_cycle;Signal;HPM_P1;HPM_P2
2023/04/25 00:04:25;;;;;;;6.15;1.80;;;;;;;;;;10435736;28;20045;-75
2023/04/25 00:09:31;;;;;;;2.22;0.85;;;;;;;;;;10433099;28;20120;-75
2023/04/25 00:14:35;;;;;;;3.55;1.55;;;;;;;;;;10426523;28;20040;-74
2023/04/25 00:19:38;;;;;;;4.68;1.67;;;;;;;;;;10429591;28;20036;-75
2023/04/25 00:24:42;;;;;;;2.00;1.30;;;;;;;;;;10428259;28;20099;-76
2023/04/25 00:29:44;;;;;;;3.20;1.60;;;;;;;;;;10433600;28;20049;-74
2023/04/25 00:34:47;;;;;;;2.22;1.10;;;;;;;;;;10429854;28;20044;-76
2023/04/25 00:39:53;;;;;;;0.75;0.65;;;;;;;;;;10426809;28;20513;-75
2023/04/25 00:44:56;;;;;;;1.60;1.00;;;;;;;;;;10435335;28;20044;-75
2023/04/25 00:49:59;;;;;;;4.07;1.77;;;;;;;;;;10425004;28;20025;-76
2023/04/25 00:55:04;;;;;;;3.77;2.43;;;;;;;;;;10431397;28;20037;-75
2023/04/25 01:00:09;;;;;;;3.85;1.83;;;;;;;;;;10425563;28;20305;-76
2023/04/25 01:05:13;;;;;;;2.65;1.00;;;;;;;;;;10426628;28;20040;-75
2023/04/25 01:10:18;;;;;;;5.25;1.90;;;;;;;;;;10432702;28;20045;-76
2023/04/25 01:15:21;;;;;;;3.22;1.65;;;;;;;;;;10423195;28;21288;-76
2023/04/25 01:20:26;;;;;;;1.80;0.82;;;;;;;;;;10430774;28;20149;-75
2023/04/25 01:25:30;;;;;;;1.98;1.00;;;;;;;;;;10425530;28;21714;-76
2023/04/25 01:30:33;;;;;;;;;;;;;;;;;;10422301;28;20043;-74
2023/04/25 01:35:36;;;;;;;1.17;0.70;;;;;;;;;;10421852;28;19933;-74
2023/04/25 01:40:41;;;;;;;3.80;1.70;;;;;;;;;;10432073;28;20120;-78
2023/04/25 01:45:44;;;;;;;3.90;1.67;;;;;;;;;;10433791;28;20152;-75
2023/04/25 01:50:48;;;;;;;1.20;0.77;;;;;;;;;;10442210;28;20033;-76
2023/04/25 01:55:52;;;;;;;1.20;0.85;;;;;;;;;;10476390;28;20112;-75
2023/04/25 02:00:56;;;;;;;2.90;1.52;;;;;;;;;;10484841;28;20033;-76
2023/04/25 02:06:00;;;;;;;2.50;1.47;;;;;;;;;;10459381;28;20124;-76
2023/04/25 02:11:05;;;;;;;4.00;1.52;;;;;;;;;;10444739;28;20880;-75
2023/04/25 02:16:08;;;;;;;1.90;1.05;;;;;;;;;;10436104;28;20120;-75
2023/04/25 02:21:11;;;;;;;0.98;0.85;;;;;;;;;;10442173;28;20064;-76
2023/04/25 02:26:15;;;;;;;1.80;1.40;;;;;;;;;;10443968;28;20552;-76
2023/04/25 02:31:18;;;;;;;;;;;;;;;;;;10435592;28;20175;-75
2023/04/25 02:36:21;;;;;;;3.85;1.90;;;;;;;;;;10435139;28;19925;-77
2023/04/25 02:41:25;;;;;;;3.45;1.50;;;;;;;;;;10441970;28;20048;-74
2023/04/25 02:46:30;;;;;;;4.25;1.77;;;;;;;;;;10426295;28;20414;-75
2023/04/25 02:51:40;;;;;;;2.42;1.65;;;;;;;;;;10431872;28;20037;-75
2023/04/25 02:56:44;;;;;;;1.63;0.88;;;;;;;;;;10435560;28;20036;-75
2023/04/25 03:01:48;;;;;;;4.70;1.05;;;;;;;;;;10436856;28;20048;-75
2023/04/25 03:06:52;;;;;;;2.07;1.30;;;;;;;;;;10425363;28;20566;-76
2023/04/25 03:11:57;;;;;;;4.18;1.80;;;;;;;;;;10434164;28;20056;-76
2023/04/25 03:17:00;;;;;;;1.67;1.30;;;;;;;;;;10437366;28;20041;-76
2023/04/25 03:22:03;;;;;;;3.23;1.70;;;;;;;;;;10426250;28;20037;-76
2023/04/25 03:27:07;;;;;;;4.40;1.90;;;;;;;;;;10437999;28;20029;-75
2023/04/25 03:32:10;;;;;;;7.15;1.85;;;;;;;;;;10435995;28;20116;-74
2023/04/25 03:37:14;;;;;;;3.70;1.95;;;;;;;;;;10434774;28;20041;-76
2023/04/25 03:42:19;;;;;;;1.08;0.90;;;;;;;;;;10435611;28;20094;-76
2023/04/25 03:47:23;;;;;;;2.55;1.15;;;;;;;;;;10431718;28;20131;-76
2023/04/25 03:52:27;;;;;;;3.72;1.80;;;;;;;;;;10431713;28;20033;-75
2023/04/25 03:57:31;;;;;;;3.25;1.50;;;;;;;;;;10434250;28;20045;-75
2023/04/25 04:02:37;;;;;;;2.63;1.55;;;;;;;;;;10430868;28;20094;-76
2023/04/25 04:07:42;;;;;;;3.28;1.40;;;;;;;;;;10433840;28;20486;-76
2023/04/25 04:12:47;;;;;;;3.15;1.35;;;;;;;;;;10432027;28;20115;-76
2023/04/25 04:17:50;;;;;;;0.70;0.40;;;;;;;;;;10442458;28;20406;-77
2023/04/25 04:22:53;;;;;;;4.40;1.10;;;;;;;;;;10428517;28;20044;-76
2023/04/25 04:28:00;;;;;;;4.25;1.17;;;;;;;;;;10431525;28;20522;-76
2023/04/25 04:33:03;;;;;;;2.65;0.98;;;;;;;;;;10429496;28;20103;-76
2023/04/25 04:38:06;;;;;;;2.37;1.20;;;;;;;;;;10425779;28;20045;-75
2023/04/25 04:43:11;;;;;;;4.28;1.33;;;;;;;;;;10437822;28;20041;-76
2023/04/25 04:48:15;;;;;;;1.80;1.20;;;;;;;;;;10428336;28;20041;-76
2023/04/25 04:53:18;;;;;;;5.15;1.60;;;;;;;;;;10429738;28;20099;-75
2023/04/25 04:58:22;;;;;;;2.05;0.85;;;;;;;;;;10431419;28;20518;-76
2023/04/25 05:03:27;;;;;;;1.23;0.98;;;;;;;;;;10426945;28;20051;-76
2023/04/25 05:08:30;;;;;;;3.47;1.38;;;;;;;;;;10430921;28;20033;-76
2023/04/25 05:13:34;;;;;;;3.88;1.40;;;;;;;;;;10423571;28;20040;-77
2023/04/25 05:18:37;;;;;;;2.10;1.38;;;;;;;;;;10434622;28;20048;-76
2023/04/25 05:23:40;;;;;;;4.90;1.55;;;;;;;;;;10431312;28;20123;-76
2023/04/25 05:28:45;;;;;;;5.53;2.13;;;;;;;;;;10439238;28;20044;-75
2023/04/25 05:33:48;;;;;;;3.30;1.70;;;;;;;;;;10437999;28;20037;-77
2023/04/25 05:38:51;;;;;;;2.90;1.80;;;;;;;;;;10442743;28;20128;-77
2023/04/25 05:43:55;;;;;;;6.53;2.30;;;;;;;;;;10442861;28;20095;-75
2023/04/25 05:49:00;;;;;;;5.55;1.92;;;;;;;;;;10437516;28;20098;-76
2023/04/25 05:54:03;;;;;;;4.47;1.98;;;;;;;;;;10438039;28;20047;-76
2023/04/25 05:59:08;;;;;;;6.22;1.92;;;;;;;;;;10440007;28;20069;-75
2023/04/25 06:04:11;;;;;;;;;;;;;;;;;;10440869;28;20491;-76
2023/04/25 06:09:15;;;;;;;2.90;1.17;;;;;;;;;;10433290;28;19946;-78
2023/04/25 06:14:21;;;;;;;4.97;2.42;;;;;;;;;;10433154;28;20033;-75
2023/04/25 06:19:23;;;;;;;2.90;1.63;;;;;;;;;;10432713;28;20524;-76
2023/04/25 06:24:26;;;;;;;4.07;1.90;;;;;;;;;;10429436;28;20047;-75
2023/04/25 06:29:30;;;;;;;3.33;1.73;;;;;;;;;;10432996;28;20149;-76
2023/04/25 06:34:34;;;;;;;3.45;1.20;;;;;;;;;;10432624;28;20041;-77
2023/04/25 06:39:37;;;;;;;5.65;2.97;;;;;;;;;;10440174;28;20032;-73
2023/04/25 06:44:44;;;;;;;6.25;2.40;;;;;;;;;;10429681;28;20466;-77
2023/04/25 06:49:47;;;;;;;3.60;1.85;;;;;;;;;;10439957;28;20036;-77
2023/04/25 06:54:49;;;;;;;10.75;4.30;;;;;;;;;;10442744;28;20048;-78
2023/04/25 06:59:53;;;;;;;8.63;3.35;;;;;;;;;;10433635;28;20044;-75
2023/04/25 07:04:59;;;;;;;;;;;;;;;;;;10436587;28;20045;-75
2023/04/25 07:10:02;;;;;;;5.03;1.90;;;;;;;;;;10435675;28;20705;-75
2023/04/25 07:15:09;;;;;;;0.88;0.80;;;;;;;;;;10435721;28;20040;-75
2023/04/25 07:20:13;;;;;;;3.25;1.50;;;;;;;;;;10441458;28;20061;-76
2023/04/25 07:25:16;;;;;;;2.60;1.75;;;;;;;;;;10439621;28;20094;-75
2023/04/25 07:30:23;;;;;;;8.07;2.70;;;;;;;;;;10433039;28;20037;-76
2023/04/25 07:35:26;;;;;;;1.42;1.02;;;;;;;;;;10433724;28;20048;-75
2023/04/25 07:40:29;;;;;;;2.55;1.92;;;;;;;;;;10434763;28;20069;-75
2023/04/25 07:45:34;;;;;;;2.77;1.27;;;;;;;;;;10432460;28;20065;-76
2023/04/25 07:50:37;;;;;;;2.67;1.80;;;;;;;;;;10438090;28;20101;-75
2023/04/25 07:55:39;;;;;;;3.25;1.95;;;;;;;;;;10429205;28;20049;-75
2023/04/25 08:00:45;;;;;;;4.13;2.30;;;;;;;;;;10436477;28;20053;-76
2023/04/25 08:05:48;;;;;;;;;;;;;;;;;;10431327;28;20533;-76
2023/04/25 08:10:51;;;;;;;3.72;1.85;;;;;;;;;;10431510;28;19921;-76
2023/04/25 08:15:54;;;;;;;;;;;;;;;;;;10430283;28;20041;-75
2023/04/25 08:20:57;;;;;;;;;;;;;;;;;;10432764;28;19925;-77
2023/04/25 08:26:00;;;;;;;;;;;;;;;;;;10435722;28;19924;-75
2023/04/25 08:31:04;;;;;;;4.15;2.25;;;;;;;;;;10431270;28;19928;-76
2023/04/25 08:36:07;;;;;;;5.85;2.53;;;;;;;;;;10433559;28;20041;-75
2023/04/25 08:41:12;;;;;;;3.08;1.60;;;;;;;;;;10429648;28;20068;-75
2023/04/25 08:46:14;;;;;;;;;;;;;;;;;;10435658;28;20044;-76
2023/04/25 08:51:22;;;;;;;2.55;1.90;;;;;;;;;;10439069;28;19928;-75
2023/04/25 08:56:26;;;;;;;2.15;1.95;;;;;;;;;;10428990;28;20049;-76
2023/04/25 09:01:30;;;;;;;;;;;;;;;;;;10421473;28;20397;-76
2023/04/25 09:06:35;;;;;;;3.13;2.30;;;;;;;;;;10431860;28;19967;-76
2023/04/25 09:11:38;;;;;;;4.53;2.50;;;;;;;;;;10426732;28;20423;-77
2023/04/25 09:17:02;;;;;;;3.50;1.67;;;;;;;;;;10426075;28;20428;-76
2023/04/25 09:22:07;;;;;;;4.13;2.33;;;;;;;;;;10425710;28;20548;-76
2023/04/25 09:27:11;;;;;;;2.42;1.70;;;;;;;;;;10432228;28;20425;-76
2023/04/25 09:32:16;;;;;;;2.13;1.50;;;;;;;;;;10432023;28;20437;-77
2023/04/25 09:37:21;;;;;;;2.85;2.40;;;;;;;;;;10427661;28;20420;-77
2023/04/25 09:42:25;;;;;;;;;;;;;;;;;;10435485;28;20156;-77
2023/04/25 09:47:28;;;;;;;;;;;;;;;;;;10427752;28;20447;-77
2023/04/25 09:52:30;;;;;;;;;;;;;;;;;;10424195;28;19925;-76
2023/04/25 09:57:39;;;;;;;4.22;1.90;;;;;;;;;;10419637;28;19991;-77
2023/04/25 10:02:43;;;;;;;2.90;2.20;;;;;;;;;;10431064;28;20429;-77
2023/04/25 10:07:46;;;;;;;3.58;1.70;;;;;;;;;;10432460;28;20120;-77
2023/04/25 10:12:50;;;;;;;3.33;1.75;;;;;;;;;;10430414;28;20517;-77
2023/04/25 10:17:53;;;;;;;3.13;1.60;;;;;;;;;;10423505;28;20535;-76
2023/04/25 10:22:59;;;;;;;2.60;1.80;;;;;;;;;;10429695;28;20436;-77
2023/04/25 10:28:04;;;;;;;2.83;1.77;;;;;;;;;;10428492;28;20440;-76
2023/04/25 10:33:17;;;;;;;3.42;1.90;;;;;;;;;;10432408;28;21008;-76
2023/04/25 10:38:19;;;;;;;2.00;1.40;;;;;;;;;;10435483;28;20963;-76
2023/04/25 10:43:36;;;;;;;3.47;1.83;;;;;;;;;;10424407;28;21028;-76
2023/04/25 10:48:44;;;;;;;3.50;1.00;;;;;;;;;;10437402;28;20287;-76
2023/04/25 10:53:47;;;;;;;1.02;0.93;;;;;;;;;;10430575;28;20502;-75
2023/04/25 10:58:51;;;;;;;2.67;1.25;;;;;;;;;;10443834;28;20044;-76
2023/04/25 11:03:59;;;;;;;1.98;1.45;;;;;;;;;;10437428;28;20041;-76
2023/04/25 11:09:02;;;;;;;5.90;1.80;;;;;;;;;;10434540;28;20136;-76
2023/04/25 11:14:06;;;;;;;5.03;2.10;;;;;;;;;;10431576;28;20037;-76
2023/04/25 11:19:10;;;;;;;3.05;1.40;;;;;;;;;;10431718;28;20661;-75
2023/04/25 11:29:06;;;;;;;1.27;1.00;;;;;;;;;;10550391;27;20407;-76
2023/04/25 11:34:09;;;;;;;2.10;1.13;;;;;;;;;;10546807;28;20047;-77
2023/04/25 11:39:12;;;;;;;2.53;1.07;;;;;;;;;;10548791;28;20043;-74
2023/04/25 11:44:17;;;;;;;2.57;1.07;;;;;;;;;;10550511;28;20131;-75
2023/04/25 11:49:21;;;;;;;1.10;0.93;;;;;;;;;;10549867;28;20293;-76
2023/04/25 11:54:24;;;;;;;1.38;0.93;;;;;;;;;;10545677;28;20040;-75
2023/04/25 11:59:28;;;;;;;2.95;1.23;;;;;;;;;;10544610;28;20043;-76
2023/04/25 12:04:30;;;;;;;;;;;;;;;;;;10554213;28;20050;-76
2023/04/25 12:09:34;;;;;;;2.15;0.95;;;;;;;;;;10553310;28;19920;-77
2023/04/25 12:14:38;;;;;;;2.58;0.98;;;;;;;;;;10543667;28;20048;-76
2023/04/25 12:19:41;;;;;;;;;;;;;;;;;;10541299;28;20255;-76
2023/04/25 12:24:45;;;;;;;0.85;0.80;;;;;;;;;;10540013;28;20334;-76
2023/04/25 12:29:53;;;;;;;1.13;0.80;;;;;;;;;;10540075;28;20063;-76
2023/04/25 12:34:56;;;;;;;0.70;0.70;;;;;;;;;;10543312;28;20047;-76
2023/04/25 12:39:58;;;;;;;2.38;0.85;;;;;;;;;;10526806;28;20055;-75
2023/04/25 12:45:02;;;;;;;2.08;1.13;;;;;;;;;;10513439;28;20040;-76
2023/04/25 12:50:04;;;;;;;;;;;;;;;;;;10521220;28;20032;-76
2023/04/25 12:55:07;;;;;;;1.38;0.93;;;;;;;;;;10516486;28;20495;-76
2023/04/25 13:00:14;;;;;;;1.20;0.70;;;;;;;;;;10518745;28;20044;-76
2023/04/25 13:05:17;;;;;;;1.20;0.90;;;;;;;;;;10520394;28;20032;-76
2023/04/25 13:10:19;;;;;;;0.50;0.50;;;;;;;;;;10518306;28;20459;-76
2023/04/25 13:15:23;;;;;;;0.95;0.80;;;;;;;;;;10515597;28;20036;-76
2023/04/25 13:20:26;;;;;;;;;;;;;;;;;;10517421;28;20073;-75
2023/04/25 13:25:29;;;;;;;1.23;0.60;;;;;;;;;;10516514;28;19987;-76
2023/04/25 13:30:33;;;;;;;2.00;0.90;;;;;;;;;;10520802;28;20028;-75
2023/04/25 13:35:35;;;;;;;;;;;;;;;;;;10517511;28;20554;-75
2023/04/25 13:40:38;;;;;;;2.10;0.93;;;;;;;;;;10516845;28;19960;-76
2023/04/25 13:45:42;;;;;;;3.40;1.02;;;;;;;;;;10510175;28;20070;-76
2023/04/25 13:50:45;;;;;;;1.90;0.85;;;;;;;;;;10515779;28;20101;-75
2023/04/25 13:55:48;;;;;;;2.55;0.70;;;;;;;;;;10505665;28;20044;-76
2023/04/25 14:00:53;;;;;;;1.63;0.88;;;;;;;;;;10520564;28;20398;-76
2023/04/25 14:05:59;;;;;;;1.85;1.10;;;;;;;;;;10524669;28;20046;-76
2023/04/25 14:11:01;;;;;;;2.13;1.23;;;;;;;;;;10502406;28;20075;-75
2023/04/25 14:16:06;;;;;;;2.80;1.20;;;;;;;;;;10509013;28;20036;-75
2023/04/25 14:21:09;;;;;;;1.85;0.93;;;;;;;;;;10516093;28;20070;-76
2023/04/25 14:26:19;;;;;;;1.20;1.10;;;;;;;;;;10510515;28;20439;-75
2023/04/25 14:31:24;;;;;;;1.27;1.10;;;;;;;;;;10502810;28;20044;-75
2023/04/25 14:36:27;;;;;;;1.38;0.75;;;;;;;;;;10514206;28;20549;-75
2023/04/25 14:41:30;;;;;;;2.05;1.00;;;;;;;;;;10515644;28;20047;-75
2023/04/25 14:46:34;;;;;;;1.70;1.00;;;;;;;;;;10509018;28;20485;-76
2023/04/25 14:51:36;;;;;;;;;;;;;;;;;;10509362;28;20044;-76
2023/04/25 14:56:39;;;;;;;0.95;0.63;;;;;;;;;;10504364;28;20010;-76
2023/04/25 15:01:43;;;;;;;2.58;0.77;;;;;;;;;;10515857;28;20040;-75
2023/04/25 15:06:46;;;;;;;2.85;0.80;;;;;;;;;;10507844;28;20393;-75
2023/04/25 15:11:49;;;;;;;1.15;0.70;;;;;;;;;;10512338;28;20079;-75
2023/04/25 15:16:53;;;;;;;1.35;0.65;;;;;;;;;;10513001;28;20028;-75
2023/04/25 15:21:56;;;;;;;;;;;;;;;;;;10509709;28;20047;-75
2023/04/25 15:26:58;;;;;;;0.50;0.50;;;;;;;;;;10506197;28;19963;-76
2023/04/25 15:32:02;;;;;;;0.80;0.80;;;;;;;;;;10510483;28;20055;-76
2023/04/25 15:37:05;;;;;;;0.88;0.82;;;;;;;;;;10510475;28;20036;-77
2023/04/25 15:42:08;;;;;;;1.15;1.05;;;;;;;;;;10518367;28;20056;-77
2023/04/25 15:47:12;;;;;;;1.73;1.20;;;;;;;;;;10512215;28;20047;-75
2023/04/25 15:52:20;;;;;;;1.52;1.10;;;;;;;;;;10508374;28;20053;-75
2023/04/25 15:57:23;;;;;;;0.45;0.45;;;;;;;;;;10518357;28;20040;-75
2023/04/25 16:02:28;;;;;;;1.23;0.70;;;;;;;;;;10511679;28;20048;-75
2023/04/25 16:07:31;;;;;;;1.52;1.10;;;;;;;;;;10517459;28;20647;-76
2023/04/25 16:12:35;;;;;;;2.43;1.37;;;;;;;;;;10515203;28;20122;-77
2023/04/25 16:17:39;;;;;;;2.10;1.40;;;;;;;;;;10505233;28;20640;-76
2023/04/25 16:22:42;;;;;;;4.05;1.70;;;;;;;;;;10507644;28;20418;-75
2023/04/25 16:27:45;;;;;;;2.42;1.40;;;;;;;;;;10521152;28;20048;-74
2023/04/25 16:32:49;;;;;;;2.20;1.50;;;;;;;;;;10522363;28;20036;-75
2023/04/25 16:37:52;;;;;;;;;;;;;;;;;;10520208;28;20040;-75
2023/04/25 16:42:54;;;;;;;5.50;2.10;;;;;;;;;;10517799;28;19919;-75
2023/04/25 16:47:58;;;;;;;3.42;1.67;;;;;;;;;;10517455;28;20037;-74
2023/04/25 16:53:01;;;;;;;5.35;1.80;;;;;;;;;;10510800;28;20565;-75
2023/04/25 16:58:05;;;;;;;4.15;1.90;;;;;;;;;;10516006;28;20035;-75
2023/04/25 17:03:13;;;;;;;1.33;0.93;;;;;;;;;;10513332;28;20043;-78
2023/04/25 17:08:16;;;;;;;3.13;1.58;;;;;;;;;;10517481;28;20040;-74
2023/04/25 17:13:18;;;;;;;3.58;1.80;;;;;;;;;;10517373;28;20044;-75
2023/04/25 17:18:23;;;;;;;4.32;2.10;;;;;;;;;;10523830;28;20052;-75
2023/04/25 17:23:26;;;;;;;1.90;1.13;;;;;;;;;;10512918;28;20056;-74
2023/04/25 17:28:28;;;;;;;4.25;2.10;;;;;;;;;;10511734;28;20134;-76
2023/04/25 17:40:01;;;;;;;4.32;2.28;;;;;;;;;;10509583;28;20445;-76
2023/04/25 17:45:23;;;;;;;4.95;2.30;;;;;;;;;;10517858;27;20440;-75
2023/04/25 17:50:48;;;;;;;5.25;2.17;;;;;;;;;;10546262;28;20043;-75
2023/04/25 17:56:12;;;;;;;4.82;2.60;;;;;;;;;;10536197;27;20067;-78
2023/04/25 18:01:48;;;;;;;5.43;2.58;;;;;;;;;;10553237;27;20079;-75
2023/04/25 18:07:11;;;;;;;5.97;3.05;;;;;;;;;;10555678;28;20047;-75
2023/04/25 18:12:37;;;;;;;8.48;2.80;;;;;;;;;;10534296;28;20050;-76
2023/04/25 18:18:02;;;;;;;5.63;1.77;;;;;;;;;;10551290;27;20440;-77
2023/04/25 18:23:25;;;;;;;4.35;1.80;;;;;;;;;;10549288;27;20055;-76
2023/04/25 18:28:49;;;;;;;2.38;1.10;;;;;;;;;;10550797;28;20523;-76
2023/04/25 18:34:15;;;;;;;2.25;1.35;;;;;;;;;;10564190;27;20055;-75
2023/04/25 18:39:39;;;;;;;4.72;0.98;;;;;;;;;;10556948;27;20055;-76
2023/04/25 18:45:04;;;;;;;2.22;1.20;;;;;;;;;;10555270;27;20065;-77
2023/04/25 18:50:28;;;;;;;4.03;1.70;;;;;;;;;;10554253;28;20044;-77
2023/04/25 18:55:51;;;;;;;3.95;2.05;;;;;;;;;;10563138;27;20516;-77
2023/04/25 19:01:16;;;;;;;4.25;2.08;;;;;;;;;;10554179;27;20145;-76
2023/04/25 19:06:39;;;;;;;3.00;1.73;;;;;;;;;;10559032;27;20035;-76
2023/04/25 19:12:02;;;;;;;4.40;2.28;;;;;;;;;;10562678;27;20062;-78
2023/04/25 19:17:27;;;;;;;6.07;2.28;;;;;;;;;;10555567;28;20048;-78
2023/04/25 19:22:53;;;;;;;7.40;2.67;;;;;;;;;;10556841;28;20301;-76
2023/04/25 19:28:15;;;;;;;6.10;2.73;;;;;;;;;;10557291;28;20075;-76
2023/04/25 19:33:40;;;;;;;5.65;2.92;;;;;;;;;;10558884;28;20139;-76
2023/04/25 19:39:05;;;;;;;5.43;2.85;;;;;;;;;;10556329;28;20052;-76
2023/04/25 19:44:29;;;;;;;7.78;3.13;;;;;;;;;;10548922;28;20046;-75
2023/04/25 19:49:53;;;;;;;5.97;2.85;;;;;;;;;;10550603;28;20036;-75
2023/04/25 19:55:16;;;;;;;;;;;;;;;;;;10563371;28;20540;-75
2023/04/25 20:00:40;;;;;;;7.85;3.22;;;;;;;;;;10551698;27;19920;-77
2023/04/25 20:06:05;;;;;;;2.37;1.60;;;;;;;;;;10561995;27;20048;-77
2023/04/25 20:11:29;;;;;;;6.03;2.30;;;;;;;;;;10562941;28;20039;-75
2023/04/25 20:16:53;;;;;;;2.67;1.80;;;;;;;;;;10555549;27;20048;-74
2023/04/25 20:22:17;;;;;;;2.30;1.55;;;;;;;;;;10558321;27;20063;-76
2023/04/25 20:27:40;;;;;;;5.35;2.50;;;;;;;;;;10561265;27;20421;-76
2023/04/25 20:33:06;;;;;;;7.18;3.05;;;;;;;;;;10561176;27;20409;-75
2023/04/25 20:38:31;;;;;;;6.72;2.95;;;;;;;;;;10551259;27;20039;-77
2023/04/25 20:43:54;;;;;;;9.32;4.15;;;;;;;;;;10554471;28;20059;-75
2023/04/25 20:49:18;;;;;;;9.32;3.33;;;;;;;;;;10548247;27;20430;-77
2023/04/25 20:54:42;;;;;;;6.47;2.97;;;;;;;;;;10555071;27;20055;-76
2023/04/25 21:00:12;;;;;;;4.30;2.20;;;;;;;;;;10566703;27;20039;-76
2023/04/25 21:05:35;;;;;;;3.17;1.42;;;;;;;;;;10567282;27;20275;-78
2023/04/25 21:11:00;;;;;;;1.48;1.02;;;;;;;;;;10564557;28;20088;-78
2023/04/25 21:16:23;;;;;;;5.85;2.40;;;;;;;;;;10564458;27;20063;-77
2023/04/25 21:21:46;;;;;;;7.07;2.50;;;;;;;;;;10562842;27;20581;-76
2023/04/25 21:27:10;;;;;;;5.35;2.35;;;;;;;;;;10563290;28;20040;-77
2023/04/25 21:32:34;;;;;;;8.13;3.40;;;;;;;;;;10551165;28;20048;-78
2023/04/25 21:37:58;;;;;;;;;;;;;;;;;;10550432;27;20531;-77
2023/04/25 21:43:22;;;;;;;6.60;2.83;;;;;;;;;;10555752;28;19957;-78
2023/04/25 21:48:45;;;;;;;3.78;2.13;;;;;;;;;;10559301;27;20040;-78
2023/04/25 21:54:08;;;;;;;5.90;2.85;;;;;;;;;;10560029;27;20047;-77
2023/04/25 21:59:34;;;;;;;5.03;1.33;;;;;;;;;;10557865;27;20046;-76
2023/04/25 22:04:57;;;;;;;6.93;3.08;;;;;;;;;;10548946;28;20492;-76
2023/04/25 22:10:21;;;;;;;7.13;3.20;;;;;;;;;;10549695;27;20044;-77
2023/04/25 22:15:46;;;;;;;8.10;3.20;;;;;;;;;;10555045;27;20050;-78
2023/04/25 22:21:10;;;;;;;7.90;3.95;;;;;;;;;;10553710;28;20055;-78
2023/04/25 22:26:33;;;;;;;6.53;2.70;;;;;;;;;;10559674;28;20055;-76
2023/04/25 22:31:58;;;;;;;5.30;2.47;;;;;;;;;;10560789;28;20035;-78
2023/04/25 22:37:22;;;;;;;7.32;3.67;;;;;;;;;;10545991;27;20059;-76
2023/04/25 22:42:45;;;;;;;6.80;3.27;;;;;;;;;;10554438;28;20537;-77
2023/04/25 22:48:10;;;;;;;7.90;3.77;;;;;;;;;;10559822;27;20050;-77
2023/04/25 22:53:36;;;;;;;8.52;3.85;;;;;;;;;;10554017;27;20605;-76
2023/04/25 22:58:59;;;;;;;9.05;3.78;;;;;;;;;;10553642;27;20032;-77
2023/04/25 23:04:23;;;;;;;10.18;4.20;;;;;;;;;;10548645;27;20055;-76
2023/04/25 23:09:47;;;;;;;10.70;3.95;;;;;;;;;;10552190;28;20043;-78
2023/04/25 23:15:11;;;;;;;9.35;3.95;;;;;;;;;;10552760;28;20504;-77
2023/04/25 23:20:35;;;;;;;13.68;4.80;;;;;;;;;;10549120;28;20044;-77
2023/04/25 23:25:59;;;;;;;12.00;4.95;;;;;;;;;;10547800;28;20051;-76
2023/04/25 23:31:22;;;;;;;12.88;5.50;;;;;;;;;;10546105;28;20048;-76
2023/04/25 23:36:46;;;;;;;14.20;5.65;;;;;;;;;;10552144;28;20051;-75
2023/04/25 23:42:10;;;;;;;11.65;5.15;;;;;;;;;;10551704;28;20059;-76
2023/04/25 23:47:33;;;;;;;15.07;5.88;;;;;;;;;;10552425;28;20070;-75
2023/04/25 23:52:57;;;;;;;17.70;5.97;;;;;;;;;;10548162;28;20332;-75
2023/04/25 23:58:21;;;;;;;13.88;5.43;;;;;;;;;;10557921;28;20052;-75
